createdAt,value
2023-06-07T00:00:46.808Z,8.27
2023-06-07T00:03:50.275Z,7.72
2023-06-07T00:07:01.893Z,8.03
2023-06-07T00:10:05.263Z,8.10
2023-06-07T00:13:08.142Z,8.30
2023-06-07T00:16:11.675Z,8.07
2023-06-07T00:19:14.729Z,9.25
2023-06-07T00:22:17.608Z,8.93
2023-06-07T00:25:20.479Z,7.77
2023-06-07T00:28:22.958Z,8.30
2023-06-07T00:31:25.469Z,7.72
2023-06-07T00:34:28.308Z,8.23
2023-06-07T00:37:30.877Z,8.00
2023-06-07T00:40:33.490Z,8.03
2023-06-07T00:43:35.989Z,8.63
2023-06-07T00:46:40.871Z,8.93
2023-06-07T00:49:45.003Z,9.13
2023-06-07T00:52:47.598Z,9.00
2023-06-07T00:55:50.178Z,9.33
2023-06-07T00:58:52.923Z,9.60
2023-06-07T01:01:57.060Z,9.35
2023-06-07T01:05:03.958Z,9.35
2023-06-07T01:08:06.717Z,9.47
2023-06-07T01:11:11.866Z,9.37
2023-06-07T01:14:17.258Z,9.13
2023-06-07T01:17:25.718Z,9.77
2023-06-07T01:20:31.302Z,9.73
2023-06-07T01:23:36.196Z,9.33
2023-06-07T01:26:39.141Z,9.20
2023-06-07T01:29:42.426Z,10.13
2023-06-07T01:32:46.719Z,9.50
2023-06-07T01:35:51.717Z,9.18
2023-06-07T01:38:57.236Z,9.67
2023-06-07T01:42:01.482Z,8.97
2023-06-07T01:45:05.939Z,9.98
2023-06-07T01:48:10.127Z,10.32
2023-06-07T01:51:12.784Z,10.15
2023-06-07T01:54:16.771Z,10.57
2023-06-07T01:57:42.817Z,10.03
2023-06-07T02:01:20.181Z,9.75
2023-06-07T02:04:26.876Z,10.02
2023-06-07T02:07:34.105Z,9.48
2023-06-07T02:10:39.931Z,10.33
2023-06-07T02:13:44.539Z,10.80
2023-06-07T02:16:48.295Z,10.32
2023-06-07T02:19:51.090Z,10.20
2023-06-07T02:22:53.838Z,9.45
2023-06-07T02:25:56.343Z,9.97
2023-06-07T02:28:59.092Z,10.30
2023-06-07T02:32:02.188Z,9.93
2023-06-07T02:35:05.243Z,10.98
2023-06-07T02:38:09.877Z,9.85
2023-06-07T02:41:14.002Z,9.37
2023-06-07T02:44:16.615Z,9.10
2023-06-07T02:47:19.133Z,9.57
2023-06-07T02:50:24.810Z,9.10
2023-06-07T02:53:31.472Z,8.85
2023-06-07T02:56:34.126Z,9.20
2023-06-07T02:59:36.688Z,9.30
2023-06-07T03:02:40.029Z,9.13
2023-06-07T03:05:42.849Z,7.63
2023-06-07T03:08:49.568Z,9.52
2023-06-07T03:11:56.415Z,8.80
2023-06-07T03:15:02.559Z,9.10
2023-06-07T03:18:06.707Z,9.02
2023-06-07T03:21:13.059Z,8.50
2023-06-07T03:24:18.180Z,9.07
2023-06-07T03:27:25.268Z,9.00
2023-06-07T03:30:32.662Z,9.30
2023-06-07T03:33:35.427Z,9.77
2023-06-07T03:36:37.984Z,8.95
2023-06-07T03:39:40.949Z,9.27
2023-06-07T03:42:43.624Z,9.43
2023-06-07T03:45:46.430Z,9.80
2023-06-07T03:48:52.810Z,9.45
2023-06-07T03:51:56.117Z,9.55
2023-06-07T03:54:59.334Z,9.70
2023-06-07T03:58:03.278Z,9.60
2023-06-07T04:01:07.809Z,9.70
2023-06-07T04:04:10.978Z,10.43
2023-06-07T04:07:13.669Z,9.10
2023-06-07T04:10:16.385Z,8.57
2023-06-07T04:13:18.874Z,9.40
2023-06-07T04:16:21.680Z,7.53
2023-06-07T04:19:25.729Z,8.02
2023-06-07T04:22:31.686Z,6.85
2023-06-07T04:25:35.214Z,7.25
2023-06-07T04:28:42.710Z,7.03
2023-06-07T04:31:45.953Z,6.47
2023-06-07T04:34:49.840Z,5.75
2023-06-07T04:37:53.352Z,5.95
2023-06-07T04:40:56.743Z,5.85
2023-06-07T04:44:12.935Z,5.87
2023-06-07T04:47:18.901Z,6.00
2023-06-07T04:50:22.179Z,5.88
2023-06-07T04:53:25.410Z,6.30
2023-06-07T04:56:28.824Z,8.05
2023-06-07T04:59:36.238Z,7.43
2023-06-07T05:02:45.610Z,6.20
2023-06-07T05:05:50.784Z,5.95
2023-06-07T05:08:53.997Z,6.20
2023-06-07T05:11:56.632Z,6.03
2023-06-07T05:15:02.246Z,5.80
2023-06-07T05:18:05.678Z,5.20
2023-06-07T05:21:08.596Z,5.22
2023-06-07T05:24:11.340Z,5.00
2023-06-07T05:27:15.375Z,4.68
2023-06-07T05:30:18.281Z,3.87
2023-06-07T05:33:22.210Z,4.80
2023-06-07T05:36:25.131Z,4.30
2023-06-07T05:39:28.162Z,4.63
2023-06-07T05:42:31.879Z,4.50
2023-06-07T05:45:34.975Z,5.37
2023-06-07T05:48:37.774Z,5.03
2023-06-07T05:51:44.084Z,4.60
2023-06-07T05:54:51.380Z,4.22
2023-06-07T05:57:55.514Z,4.32
2023-06-07T06:01:03.261Z,4.13
2023-06-07T06:04:06.044Z,4.10
2023-06-07T06:07:10.513Z,3.97
2023-06-07T06:10:13.656Z,3.50
2023-06-07T06:13:16.298Z,4.22
2023-06-07T06:16:18.989Z,3.87
2023-06-07T06:19:21.534Z,3.90
2023-06-07T06:22:24.185Z,4.38
2023-06-07T06:25:27.057Z,3.72
2023-06-07T06:28:29.792Z,4.28
2023-06-07T06:31:33.433Z,3.77
2023-06-07T06:34:36.295Z,4.97
2023-06-07T06:37:39.160Z,3.90
2023-06-07T06:40:42.248Z,3.22
2023-06-07T06:43:45.247Z,3.75
2023-06-07T06:46:52.302Z,3.57
2023-06-07T06:49:55.430Z,4.30
2023-06-07T06:52:58.286Z,4.40
2023-06-07T06:56:01.589Z,3.95
2023-06-07T06:59:04.280Z,4.43
2023-06-07T07:02:07.182Z,4.53
2023-06-07T07:05:10.759Z,3.57
2023-06-07T07:08:13.420Z,3.30
2023-06-07T07:11:16.044Z,2.90
2023-06-07T07:14:18.879Z,4.05
2023-06-07T07:17:21.579Z,4.17
2023-06-07T07:20:24.385Z,4.70
2023-06-07T07:23:26.984Z,3.70
2023-06-07T07:26:29.674Z,4.40
2023-06-07T07:29:33.181Z,4.75
2023-06-07T07:32:35.948Z,4.70
2023-06-07T07:35:39.152Z,5.63
2023-06-07T07:38:41.992Z,5.10
2023-06-07T07:41:44.725Z,4.50
2023-06-07T07:44:47.338Z,4.70
2023-06-07T07:47:50.455Z,4.70
2023-06-07T07:50:53.003Z,4.30
2023-06-07T07:53:58.084Z,4.22
2023-06-07T07:57:01.742Z,4.68
2023-06-07T08:00:06.905Z,4.50
2023-06-07T08:03:15.558Z,4.70
2023-06-07T08:06:22.757Z,5.10
2023-06-07T08:09:25.525Z,4.68
2023-06-07T08:12:29.629Z,4.72
2023-06-07T08:15:33.289Z,5.20
2023-06-07T08:18:36.299Z,5.27
2023-06-07T08:21:39.045Z,5.30
2023-06-07T08:24:42.340Z,5.35
2023-06-07T08:27:49.348Z,5.90
2023-06-07T08:30:51.942Z,5.65
2023-06-07T08:33:54.551Z,5.38
2023-06-07T08:36:58.311Z,6.17
2023-06-07T08:40:01.036Z,5.93
2023-06-07T08:43:04.584Z,6.90
2023-06-07T08:46:08.022Z,7.75
2023-06-07T08:49:12.269Z,6.90
2023-06-07T08:52:17.394Z,7.00
2023-06-07T08:55:20.712Z,7.82
2023-06-07T08:58:25.941Z,7.82
2023-06-07T09:01:32.218Z,9.35
2023-06-07T09:04:36.315Z,7.80
2023-06-07T09:07:39.937Z,8.50
2023-06-07T09:10:43.156Z,8.13
2023-06-07T09:13:45.915Z,8.07
2023-06-07T09:16:56.440Z,8.25
2023-06-07T09:19:59.103Z,8.53
2023-06-07T09:23:09.953Z,8.43
2023-06-07T09:26:12.989Z,8.20
2023-06-07T09:29:16.366Z,8.15
2023-06-07T09:32:25.427Z,8.02
2023-06-07T09:35:29.283Z,8.38
2023-06-07T09:38:32.198Z,8.17
2023-06-07T09:41:34.854Z,8.50
2023-06-07T09:44:37.653Z,7.72
2023-06-07T09:47:43.234Z,7.38
2023-06-07T09:50:58.553Z,7.43
2023-06-07T09:54:02.754Z,7.10
2023-06-07T09:57:10.654Z,7.47
2023-06-07T10:00:19.289Z,7.53
2023-06-07T10:03:21.958Z,7.28
2023-06-07T10:06:25.391Z,7.30
2023-06-07T10:09:32.033Z,7.30
2023-06-07T10:12:40.168Z,7.00
2023-06-07T10:15:47.986Z,6.72
2023-06-07T10:18:58.975Z,7.38
2023-06-07T10:22:02.969Z,6.47
2023-06-07T10:25:15.696Z,6.90
2023-06-07T10:28:34.051Z,7.13
2023-06-07T10:31:52.236Z,6.60
2023-06-07T10:34:56.532Z,6.80
2023-06-07T10:38:00.404Z,6.70
2023-06-07T10:41:06.073Z,6.90
2023-06-07T10:44:09.080Z,6.28
2023-06-07T10:47:28.869Z,6.75
2023-06-07T10:50:32.505Z,7.13
2023-06-07T10:53:57.324Z,6.90
2023-06-07T10:57:04.304Z,6.20
2023-06-07T11:00:30.305Z,6.70
2023-06-07T11:03:39.131Z,6.45
2023-06-07T11:07:20.546Z,7.30
2023-06-07T11:10:23.340Z,6.65
2023-06-07T11:13:44.627Z,6.67
2023-06-07T11:16:47.529Z,7.20
2023-06-07T11:19:59.200Z,7.10
2023-06-07T11:23:28.116Z,6.80
2023-06-07T11:26:36.355Z,6.90
2023-06-07T11:29:40.884Z,7.47
2023-06-07T11:32:46.485Z,7.30
2023-06-07T11:35:57.187Z,6.60
2023-06-07T11:39:07.094Z,6.70
2023-06-07T11:42:09.766Z,7.03
2023-06-07T11:45:14.164Z,7.30
2023-06-07T11:48:16.962Z,6.82
2023-06-07T11:51:19.577Z,6.95
2023-06-07T11:54:25.667Z,7.00
2023-06-07T11:57:33.350Z,7.97
2023-06-07T12:00:38.165Z,7.20
2023-06-07T12:03:44.003Z,7.82
2023-06-07T12:06:49.928Z,7.40
2023-06-07T12:09:52.787Z,6.75
2023-06-07T12:13:12.969Z,6.90
2023-06-07T12:16:15.898Z,7.40
2023-06-07T12:19:18.734Z,6.50
2023-06-07T12:22:21.318Z,6.90
2023-06-07T12:25:25.178Z,7.60
2023-06-07T12:28:27.803Z,7.15
2023-06-07T12:31:30.569Z,6.67
2023-06-07T12:34:33.344Z,7.43
2023-06-07T12:37:36.641Z,6.82
2023-06-07T12:40:39.644Z,7.65
2023-06-07T12:43:48.988Z,7.53
2023-06-07T12:46:51.906Z,5.87
2023-06-07T12:49:54.597Z,6.45
2023-06-07T12:52:58.270Z,6.75
2023-06-07T12:56:01.011Z,6.90
2023-06-07T12:59:04.336Z,6.93
2023-06-07T13:02:07.963Z,6.83
2023-06-07T13:05:14.380Z,7.68
2023-06-07T13:08:17.335Z,6.82
2023-06-07T13:11:19.867Z,7.30
2023-06-07T13:14:22.433Z,7.43
2023-06-07T13:17:25.576Z,7.30
2023-06-07T13:20:28.242Z,7.00
2023-06-07T13:23:30.859Z,7.00
2023-06-07T13:26:34.377Z,7.07
2023-06-07T13:29:36.948Z,7.93
2023-06-07T13:32:39.675Z,6.97
2023-06-07T13:35:42.307Z,7.35
2023-06-07T13:38:45.240Z,7.18
2023-06-07T13:41:48.397Z,7.47
2023-06-07T13:44:51.932Z,6.82
2023-06-07T13:47:55.025Z,7.20
2023-06-07T13:50:58.376Z,6.88
2023-06-07T13:54:01.673Z,6.93
2023-06-07T13:57:05.040Z,6.60
2023-06-07T14:00:13.409Z,6.63
2023-06-07T14:03:16.286Z,6.37
2023-06-07T14:06:22.932Z,7.65
2023-06-07T14:09:27.320Z,6.72
2023-06-07T14:12:29.892Z,7.30
2023-06-07T14:15:32.420Z,7.25
2023-06-07T14:18:34.964Z,6.77
2023-06-07T14:21:37.525Z,7.13
2023-06-07T14:24:40.536Z,6.95
2023-06-07T14:27:43.490Z,7.32
2023-06-07T14:30:46.364Z,6.35
2023-06-07T14:33:52.831Z,5.97
2023-06-07T14:36:55.947Z,6.45
2023-06-07T14:39:58.493Z,6.53
2023-06-07T14:43:01.200Z,6.50
2023-06-07T14:46:03.864Z,6.78
2023-06-07T14:49:06.491Z,6.17
2023-06-07T14:52:09.101Z,7.38
2023-06-07T14:55:11.868Z,7.00
2023-06-07T14:58:14.571Z,6.80
2023-06-07T15:01:18.504Z,6.63
2023-06-07T15:04:21.374Z,7.17
2023-06-07T15:07:24.896Z,7.05
2023-06-07T15:10:27.466Z,6.60
2023-06-07T15:13:29.975Z,6.70
2023-06-07T15:16:32.715Z,6.88
2023-06-07T15:19:35.536Z,6.27
2023-06-07T15:22:41.292Z,6.45
2023-06-07T15:25:43.847Z,6.65
2023-06-07T15:28:46.576Z,6.80
2023-06-07T15:31:49.418Z,7.22
2023-06-07T15:34:52.659Z,6.53
2023-06-07T15:37:56.860Z,6.60
2023-06-07T15:41:00.166Z,6.60
2023-06-07T15:44:03.009Z,6.35
2023-06-07T15:47:06.089Z,6.90
2023-06-07T15:50:09.303Z,6.93
2023-06-07T15:53:11.989Z,7.45
2023-06-07T15:56:14.887Z,7.38
2023-06-07T15:59:17.589Z,7.53
2023-06-07T16:02:20.268Z,7.68
2023-06-07T16:05:23.145Z,7.40
2023-06-07T16:08:25.867Z,7.38
2023-06-07T16:11:28.476Z,8.95
2023-06-07T16:14:31.102Z,7.65
2023-06-07T16:17:33.664Z,7.53
2023-06-07T16:20:36.484Z,7.13
2023-06-07T16:23:39.083Z,7.05
2023-06-07T16:26:41.642Z,6.10
2023-06-07T16:29:44.205Z,6.78
2023-06-07T16:32:46.843Z,6.55
2023-06-07T16:35:49.460Z,7.83
2023-06-07T16:38:52.081Z,7.38
2023-06-07T16:41:54.748Z,7.15
2023-06-07T16:44:57.982Z,6.13
2023-06-07T16:48:00.942Z,6.10
2023-06-07T16:51:03.976Z,7.30
2023-06-07T16:54:06.564Z,6.78
2023-06-07T16:57:09.094Z,6.60
2023-06-07T17:00:12.181Z,6.40
2023-06-07T17:03:14.836Z,6.47
2023-06-07T17:06:17.500Z,5.93
2023-06-07T17:09:20.100Z,5.30
2023-06-07T17:12:22.694Z,5.35
2023-06-07T17:15:26.461Z,5.00
2023-06-07T17:18:29.355Z,4.90
2023-06-07T17:21:31.999Z,4.70
2023-06-07T17:24:34.604Z,4.80
2023-06-07T17:27:37.255Z,4.38
2023-06-07T17:30:40.958Z,5.35
2023-06-07T17:33:43.532Z,6.40
2023-06-07T17:36:46.256Z,7.70
2023-06-07T17:39:50.003Z,7.65
2023-06-07T17:42:52.656Z,8.32
2023-06-07T17:45:55.307Z,7.95
2023-06-07T17:48:57.857Z,7.20
2023-06-07T17:52:06.317Z,8.03
2023-06-07T17:55:21.113Z,5.57
2023-06-07T17:58:23.711Z,5.07
2023-06-07T18:01:26.323Z,6.03
2023-06-07T18:04:29.493Z,5.40
2023-06-07T18:07:32.090Z,6.70
2023-06-07T18:10:34.689Z,6.03
2023-06-07T18:13:37.452Z,6.55
2023-06-07T18:16:40.119Z,6.22
2023-06-07T18:19:43.252Z,5.87
2023-06-07T18:22:45.819Z,5.80
2023-06-07T18:25:48.479Z,5.72
2023-06-07T18:28:51.223Z,5.60
2023-06-07T18:31:54.091Z,5.53
2023-06-07T18:34:56.752Z,5.60
2023-06-07T18:37:59.428Z,5.57
2023-06-07T18:41:01.988Z,5.75
2023-06-07T18:44:05.846Z,5.43
2023-06-07T18:47:08.616Z,6.57
2023-06-07T18:50:12.060Z,6.87
2023-06-07T18:53:14.760Z,6.53
2023-06-07T18:56:17.587Z,6.90
2023-06-07T18:59:20.302Z,6.18
2023-06-07T19:02:24.872Z,6.82
2023-06-07T19:05:27.657Z,7.87
2023-06-07T19:08:30.382Z,8.17
2023-06-07T19:11:35.230Z,7.93
2023-06-07T19:14:37.804Z,10.00
2023-06-07T19:17:40.361Z,9.73
2023-06-07T19:20:42.970Z,8.40
2023-06-07T19:23:45.806Z,9.20
2023-06-07T19:26:48.428Z,9.05
2023-06-07T19:29:51.000Z,8.57
2023-06-07T19:32:53.819Z,8.80
2023-06-07T19:35:56.785Z,7.57
2023-06-07T19:38:59.442Z,7.57
2023-06-07T19:42:04.669Z,8.00
2023-06-07T19:45:09.209Z,6.57
2023-06-07T19:48:11.875Z,6.50
2023-06-07T19:51:14.575Z,6.03
2023-06-07T19:54:17.229Z,6.27
2023-06-07T19:57:20.717Z,6.45
2023-06-07T20:00:23.468Z,6.53
2023-06-07T20:03:26.097Z,7.05
2023-06-07T20:06:28.914Z,7.13
2023-06-07T20:09:32.716Z,8.67
2023-06-07T20:12:35.439Z,8.75
2023-06-07T20:15:37.992Z,8.52
2023-06-07T20:18:40.641Z,8.55
2023-06-07T20:21:43.623Z,8.37
2023-06-07T20:24:46.346Z,8.43
2023-06-07T20:27:49.114Z,8.70
2023-06-07T20:30:51.734Z,8.13
2023-06-07T20:33:54.298Z,8.85
2023-06-07T20:36:57.238Z,8.67
2023-06-07T20:40:01.431Z,7.60
2023-06-07T20:43:04.124Z,8.10
2023-06-07T20:46:06.941Z,7.90
2023-06-07T20:49:09.680Z,8.35
2023-06-07T20:52:12.251Z,8.77
2023-06-07T20:55:16.203Z,9.43
2023-06-07T20:58:19.849Z,9.23
2023-06-07T21:01:24.521Z,8.50
2023-06-07T21:04:27.512Z,8.50
2023-06-07T21:07:30.107Z,8.53
2023-06-07T21:10:33.930Z,9.07
2023-06-07T21:13:38.900Z,10.55
2023-06-07T21:16:42.373Z,10.15
2023-06-07T21:19:47.960Z,11.88
2023-06-07T21:22:50.600Z,10.93
2023-06-07T21:25:53.891Z,10.40
2023-06-07T21:28:56.532Z,9.93
2023-06-07T21:31:59.459Z,9.88
2023-06-07T21:35:02.113Z,9.15
2023-06-07T21:38:04.694Z,9.20
2023-06-07T21:41:07.220Z,9.87
2023-06-07T21:44:09.794Z,8.38
2023-06-07T21:47:12.300Z,8.88
2023-06-07T21:50:15.885Z,8.38
2023-06-07T21:53:20.009Z,9.20
2023-06-07T21:56:22.523Z,8.47
2023-06-07T21:59:25.110Z,8.63
2023-06-07T22:02:29.695Z,8.52
2023-06-07T22:05:32.274Z,9.15
2023-06-07T22:08:34.721Z,8.70
2023-06-07T22:11:41.087Z,9.63
2023-06-07T22:14:44.409Z,8.82
2023-06-07T22:17:47.247Z,8.75
2023-06-07T22:20:50.713Z,8.25
2023-06-07T22:23:53.446Z,8.90
2023-06-07T22:26:55.962Z,9.47
2023-06-07T22:29:58.799Z,9.57
2023-06-07T22:33:01.840Z,9.63
2023-06-07T22:36:06.302Z,9.90
2023-06-07T22:39:11.506Z,9.23
2023-06-07T22:42:14.185Z,10.27
2023-06-07T22:45:17.584Z,10.15
2023-06-07T22:48:21.684Z,10.38
2023-06-07T22:51:25.054Z,10.07
2023-06-07T22:54:30.698Z,10.00
2023-06-07T22:57:33.261Z,10.73
2023-06-07T23:00:36.573Z,10.13
2023-06-07T23:03:40.276Z,11.00
2023-06-07T23:06:45.537Z,9.52
2023-06-07T23:09:47.987Z,10.93
2023-06-07T23:12:51.386Z,11.30
2023-06-07T23:15:54.896Z,10.75
2023-06-07T23:19:03.274Z,10.48
2023-06-07T23:22:05.809Z,9.63
2023-06-07T23:25:12.117Z,10.53
2023-06-07T23:28:14.690Z,10.47
2023-06-07T23:31:17.160Z,9.93
2023-06-07T23:34:21.223Z,9.73
2023-06-07T23:37:25.950Z,10.30
2023-06-07T23:40:28.430Z,10.77
2023-06-07T23:43:31.449Z,10.57
2023-06-07T23:46:34.014Z,11.30
2023-06-07T23:49:36.603Z,10.35
2023-06-07T23:52:40.970Z,11.40
2023-06-07T23:55:43.443Z,10.27
2023-06-07T23:58:46.245Z,11.03
